DAL1018 LFPG-EDDF
Flight info
| Callsign | DAL1018 |
|---|---|
| Flight time | 1h 1m |
| Altitude | 23000 |
| Route | RANUX DCT VALEK DCT LIPNI UN858 LIMGO Z111 RAMOB IMCOM1A |
| Aircraft | A320/M-SDE3FGHIRWY/LB1 |
Departure
| Time | 2026-05-06 03:22 |
|---|---|
| Airport | Charles de Gaulle International Airport (LFPG) |
Arrival
| Time | 2026-05-06 04:24 |
|---|---|
| Airport | Frankfurt Main Airport (EDDF) |
| Time | Latitude | Longitude | Altitude | Speed | Heading |
|---|---|---|---|---|---|
| 2026-05-06 02:42 | 49.00203 | 2.58419 | 355 ft | 0 kts | 85° |
| 2026-05-06 03:07 | 49.00202 | 2.58395 | 354 ft | 3 kts | 86° |
| 2026-05-06 03:07 | 49.00201 | 2.58364 | 354 ft | 3 kts | 91° |
| 2026-05-06 03:07 | 49.00202 | 2.58334 | 358 ft | 3 kts | 105° |
| 2026-05-06 03:07 | 49.00209 | 2.58309 | 357 ft | 3 kts | 145° |
| 2026-05-06 03:08 | 49.00218 | 2.58302 | 354 ft | 0 kts | 176° |
| 2026-05-06 03:10 | 49.00203 | 2.58304 | 361 ft | 5 kts | 176° |
| 2026-05-06 03:10 | 49.00145 | 2.58310 | 354 ft | 11 kts | 176° |
| 2026-05-06 03:11 | 49.00071 | 2.58319 | 358 ft | 10 kts | 175° |
| 2026-05-06 03:11 | 49.00019 | 2.58364 | 354 ft | 8 kts | 111° |
| 2026-05-06 03:11 | 49.00020 | 2.58490 | 354 ft | 17 kts | 86° |
| 2026-05-06 03:11 | 49.00032 | 2.58686 | 359 ft | 19 kts | 85° |
| 2026-05-06 03:12 | 49.00044 | 2.58889 | 354 ft | 17 kts | 85° |
| 2026-05-06 03:12 | 49.00055 | 2.59080 | 354 ft | 19 kts | 85° |
| 2026-05-06 03:12 | 49.00066 | 2.59289 | 358 ft | 21 kts | 85° |
| 2026-05-06 03:12 | 49.00096 | 2.59479 | 359 ft | 18 kts | 36° |
| 2026-05-06 03:13 | 49.00176 | 2.59493 | 361 ft | 18 kts | 355° |
| 2026-05-06 03:13 | 49.00274 | 2.59479 | 361 ft | 15 kts | 353° |
| 2026-05-06 03:13 | 49.00381 | 2.59454 | 362 ft | 16 kts | 351° |
| 2026-05-06 03:13 | 49.00501 | 2.59448 | 358 ft | 18 kts | 356° |
| 2026-05-06 03:14 | 49.00632 | 2.59432 | 358 ft | 19 kts | 355° |
| 2026-05-06 03:14 | 49.00767 | 2.59415 | 361 ft | 20 kts | 355° |
| 2026-05-06 03:14 | 49.00885 | 2.59399 | 362 ft | 17 kts | 355° |
| 2026-05-06 03:14 | 49.00977 | 2.59369 | 358 ft | 12 kts | 320° |
| 2026-05-06 03:15 | 49.00992 | 2.59244 | 354 ft | 13 kts | 264° |
| 2026-05-06 03:15 | 49.00982 | 2.59111 | 358 ft | 13 kts | 258° |
| 2026-05-06 03:15 | 49.00960 | 2.58974 | 354 ft | 13 kts | 255° |
| 2026-05-06 03:15 | 49.00944 | 2.58834 | 354 ft | 14 kts | 265° |
| 2026-05-06 03:16 | 49.00937 | 2.58668 | 357 ft | 17 kts | 266° |
| 2026-05-06 03:16 | 49.00929 | 2.58483 | 359 ft | 18 kts | 265° |
| 2026-05-06 03:16 | 49.00936 | 2.58286 | 354 ft | 19 kts | 304° |
| 2026-05-06 03:16 | 49.01056 | 2.58215 | 358 ft | 20 kts | 355° |
| 2026-05-06 03:17 | 49.01191 | 2.58203 | 354 ft | 18 kts | 356° |
| 2026-05-06 03:17 | 49.01321 | 2.58185 | 354 ft | 20 kts | 355° |
| 2026-05-06 03:17 | 49.01454 | 2.58167 | 357 ft | 20 kts | 355° |
| 2026-05-06 03:17 | 49.01588 | 2.58150 | 354 ft | 19 kts | 356° |
| 2026-05-06 03:18 | 49.01726 | 2.58136 | 354 ft | 18 kts | 356° |
| 2026-05-06 03:18 | 49.01859 | 2.58117 | 354 ft | 20 kts | 349° |
| 2026-05-06 03:18 | 49.01983 | 2.58036 | 354 ft | 19 kts | 324° |
| 2026-05-06 03:18 | 49.02066 | 2.57874 | 354 ft | 20 kts | 294° |
| 2026-05-06 03:19 | 49.02088 | 2.57677 | 354 ft | 20 kts | 268° |
| 2026-05-06 03:19 | 49.02078 | 2.57475 | 356 ft | 20 kts | 265° |
| 2026-05-06 03:19 | 49.02067 | 2.57264 | 357 ft | 17 kts | 265° |
| 2026-05-06 03:19 | 49.02083 | 2.57095 | 354 ft | 17 kts | 323° |
| 2026-05-06 03:20 | 49.02272 | 2.57056 | 359 ft | 0 kts | 352° |
| 2026-05-06 03:20 | 49.02281 | 2.57054 | 360 ft | 5 kts | 352° |
| 2026-05-06 03:21 | 49.02340 | 2.57026 | 359 ft | 11 kts | 338° |
| 2026-05-06 03:21 | 49.02366 | 2.56979 | 363 ft | 4 kts | 260° |
| 2026-05-06 03:21 | 49.02365 | 2.56960 | 362 ft | 0 kts | 265° |
| 2026-05-06 03:21 | 49.02361 | 2.56871 | 361 ft | 42 kts | 265° |
| 2026-05-06 03:22 | 49.02311 | 2.55942 | 356 ft | 131 kts | 265° |
| 2026-05-06 03:22 | 49.02248 | 2.54245 | 641 ft | 175 kts | 268° |
| 2026-05-06 03:22 | 49.02114 | 2.52339 | 1315 ft | 189 kts | 266° |
| 2026-05-06 03:22 | 49.01985 | 2.50217 | 1753 ft | 213 kts | 268° |
| 2026-05-06 03:23 | 49.01863 | 2.47845 | 2222 ft | 237 kts | 268° |
| 2026-05-06 03:23 | 49.01727 | 2.45237 | 2831 ft | 254 kts | 267° |
| 2026-05-06 03:23 | 49.01878 | 2.42557 | 3671 ft | 258 kts | 292° |
| 2026-05-06 03:23 | 49.02917 | 2.40355 | 4522 ft | 262 kts | 322° |
| 2026-05-06 03:24 | 49.04436 | 2.38767 | 5222 ft | 265 kts | 328° |
| 2026-05-06 03:24 | 49.06011 | 2.37273 | 6189 ft | 267 kts | 328° |
| 2026-05-06 03:24 | 49.07611 | 2.35789 | 7061 ft | 272 kts | 328° |
| 2026-05-06 03:24 | 49.09242 | 2.34282 | 7920 ft | 276 kts | 328° |
| 2026-05-06 03:25 | 49.11016 | 2.33124 | 8721 ft | 282 kts | 350° |
| 2026-05-06 03:25 | 49.12982 | 2.33274 | 9513 ft | 289 kts | 16° |
| 2026-05-06 03:25 | 49.14744 | 2.34748 | 10301 ft | 294 kts | 42° |
| 2026-05-06 03:25 | 49.15933 | 2.37284 | 11065 ft | 300 kts | 68° |
| 2026-05-06 03:26 | 49.16281 | 2.40510 | 11344 ft | 323 kts | 97° |
| 2026-05-06 03:26 | 49.15638 | 2.43909 | 11569 ft | 345 kts | 111° |
| 2026-05-06 03:26 | 49.14711 | 2.47427 | 11783 ft | 366 kts | 113° |
| 2026-05-06 03:26 | 49.13704 | 2.51054 | 12348 ft | 374 kts | 114° |
| 2026-05-06 03:27 | 49.12675 | 2.54716 | 13019 ft | 378 kts | 114° |
| 2026-05-06 03:27 | 49.11635 | 2.58433 | 13703 ft | 382 kts | 114° |
| 2026-05-06 03:27 | 49.10604 | 2.62179 | 14377 ft | 385 kts | 113° |
| 2026-05-06 03:27 | 49.09724 | 2.65991 | 15019 ft | 388 kts | 105° |
| 2026-05-06 03:28 | 49.09288 | 2.70061 | 15644 ft | 392 kts | 94° |
| 2026-05-06 03:28 | 49.09253 | 2.74252 | 16276 ft | 396 kts | 90° |
| 2026-05-06 03:28 | 49.09249 | 2.78522 | 16912 ft | 399 kts | 91° |
| 2026-05-06 03:28 | 49.09233 | 2.82709 | 17518 ft | 402 kts | 91° |
| 2026-05-06 03:29 | 49.09209 | 2.86988 | 18109 ft | 405 kts | 91° |
| 2026-05-06 03:29 | 49.09181 | 2.91285 | 18673 ft | 408 kts | 91° |
| 2026-05-06 03:29 | 49.09151 | 2.95631 | 19204 ft | 411 kts | 91° |
| 2026-05-06 03:29 | 49.09120 | 3.00008 | 19716 ft | 414 kts | 91° |
| 2026-05-06 03:30 | 49.09087 | 3.04423 | 20210 ft | 418 kts | 91° |
| 2026-05-06 03:30 | 49.09054 | 3.08866 | 20691 ft | 421 kts | 91° |
| 2026-05-06 03:30 | 49.09019 | 3.13345 | 21144 ft | 424 kts | 91° |
| 2026-05-06 03:30 | 49.08982 | 3.17849 | 21588 ft | 427 kts | 91° |
| 2026-05-06 03:31 | 49.08942 | 3.22398 | 22019 ft | 429 kts | 91° |
| 2026-05-06 03:31 | 49.08900 | 3.26960 | 22428 ft | 432 kts | 91° |
| 2026-05-06 03:31 | 49.08858 | 3.31561 | 22760 ft | 434 kts | 91° |
| 2026-05-06 03:31 | 49.08815 | 3.36187 | 22835 ft | 440 kts | 91° |
| 2026-05-06 03:32 | 49.08769 | 3.40915 | 22833 ft | 452 kts | 91° |
| 2026-05-06 03:32 | 49.08719 | 3.45743 | 22832 ft | 458 kts | 91° |
| 2026-05-06 03:32 | 49.08665 | 3.50609 | 22832 ft | 459 kts | 92° |
| 2026-05-06 03:32 | 49.08667 | 3.55493 | 22830 ft | 460 kts | 88° |
| 2026-05-06 03:33 | 49.08966 | 3.60344 | 22825 ft | 460 kts | 85° |
| 2026-05-06 03:33 | 49.09295 | 3.65206 | 22822 ft | 460 kts | 85° |
| 2026-05-06 03:33 | 49.09626 | 3.70065 | 22823 ft | 460 kts | 85° |
| 2026-05-06 03:33 | 49.09957 | 3.74919 | 22823 ft | 460 kts | 85° |
| 2026-05-06 03:34 | 49.10284 | 3.79774 | 22821 ft | 460 kts | 85° |
| 2026-05-06 03:34 | 49.10604 | 3.84609 | 22820 ft | 460 kts | 85° |
| 2026-05-06 03:34 | 49.10921 | 3.89469 | 22818 ft | 460 kts | 85° |
| 2026-05-06 03:34 | 49.11235 | 3.94312 | 22816 ft | 460 kts | 85° |
| 2026-05-06 03:35 | 49.11547 | 3.99172 | 22817 ft | 460 kts | 85° |
| 2026-05-06 03:35 | 49.11861 | 4.04031 | 22816 ft | 460 kts | 85° |
| 2026-05-06 03:35 | 49.12172 | 4.08885 | 22811 ft | 460 kts | 85° |
| 2026-05-06 03:35 | 49.12484 | 4.13744 | 22802 ft | 460 kts | 85° |
| 2026-05-06 03:36 | 49.12795 | 4.18612 | 22801 ft | 461 kts | 85° |
| 2026-05-06 03:36 | 49.13100 | 4.23485 | 22799 ft | 461 kts | 86° |
| 2026-05-06 03:36 | 49.13400 | 4.28358 | 22799 ft | 461 kts | 86° |
| 2026-05-06 03:36 | 49.13743 | 4.33235 | 22799 ft | 462 kts | 82° |
| 2026-05-06 03:37 | 49.14476 | 4.38010 | 22799 ft | 464 kts | 73° |
| 2026-05-06 03:37 | 49.15634 | 4.42611 | 22800 ft | 464 kts | 68° |
| 2026-05-06 03:37 | 49.16864 | 4.47104 | 22802 ft | 464 kts | 68° |
| 2026-05-06 03:37 | 49.18107 | 4.51662 | 22800 ft | 465 kts | 68° |
| 2026-05-06 03:38 | 49.19345 | 4.56218 | 22800 ft | 465 kts | 68° |
| 2026-05-06 03:38 | 49.20579 | 4.60782 | 22798 ft | 465 kts | 69° |
| 2026-05-06 03:38 | 49.21809 | 4.65355 | 22799 ft | 465 kts | 69° |
| 2026-05-06 03:38 | 49.23036 | 4.69939 | 22797 ft | 465 kts | 69° |
| 2026-05-06 03:39 | 49.24259 | 4.74514 | 22794 ft | 465 kts | 69° |
| 2026-05-06 03:39 | 49.25486 | 4.79100 | 22791 ft | 465 kts | 69° |
| 2026-05-06 03:39 | 49.26712 | 4.83676 | 22788 ft | 465 kts | 69° |
| 2026-05-06 03:39 | 49.27942 | 4.88269 | 22789 ft | 466 kts | 69° |
| 2026-05-06 03:40 | 49.29164 | 4.92852 | 22786 ft | 466 kts | 69° |
| 2026-05-06 03:40 | 49.30391 | 4.97469 | 22829 ft | 468 kts | 69° |
| 2026-05-06 03:40 | 49.31620 | 5.02094 | 22841 ft | 470 kts | 69° |
| 2026-05-06 03:40 | 49.32851 | 5.06735 | 22845 ft | 470 kts | 69° |
| 2026-05-06 03:41 | 49.34082 | 5.11388 | 22845 ft | 471 kts | 69° |
| 2026-05-06 03:41 | 49.35310 | 5.16039 | 22846 ft | 471 kts | 69° |
| 2026-05-06 03:41 | 49.36537 | 5.20695 | 22844 ft | 471 kts | 70° |
| 2026-05-06 03:41 | 49.37761 | 5.25361 | 22840 ft | 471 kts | 70° |
| 2026-05-06 03:42 | 49.38979 | 5.30025 | 22833 ft | 471 kts | 70° |
| 2026-05-06 03:42 | 49.40202 | 5.34702 | 22826 ft | 472 kts | 70° |
| 2026-05-06 03:42 | 49.41425 | 5.39374 | 22822 ft | 472 kts | 70° |
| 2026-05-06 03:42 | 49.42650 | 5.44053 | 22820 ft | 472 kts | 70° |
| 2026-05-06 03:43 | 49.43874 | 5.48745 | 22815 ft | 473 kts | 70° |
| 2026-05-06 03:43 | 49.45079 | 5.53386 | 22810 ft | 473 kts | 70° |
| 2026-05-06 03:43 | 49.46294 | 5.58081 | 22806 ft | 474 kts | 70° |
| 2026-05-06 03:43 | 49.47512 | 5.62795 | 22803 ft | 474 kts | 70° |
| 2026-05-06 03:44 | 49.48731 | 5.67516 | 22797 ft | 475 kts | 70° |
| 2026-05-06 03:44 | 49.49942 | 5.72236 | 22794 ft | 475 kts | 70° |
| 2026-05-06 03:44 | 49.51154 | 5.76965 | 22791 ft | 475 kts | 71° |
| 2026-05-06 03:44 | 49.52354 | 5.81701 | 22786 ft | 475 kts | 71° |
| 2026-05-06 03:45 | 49.53523 | 5.86466 | 22784 ft | 475 kts | 72° |
| 2026-05-06 03:45 | 49.54681 | 5.91232 | 22780 ft | 476 kts | 72° |
| 2026-05-06 03:45 | 49.55845 | 5.96004 | 22777 ft | 476 kts | 72° |
| 2026-05-06 03:45 | 49.57012 | 6.00769 | 22778 ft | 477 kts | 72° |
| 2026-05-06 03:46 | 49.58187 | 6.05550 | 22774 ft | 477 kts | 71° |
| 2026-05-06 03:46 | 49.59363 | 6.10335 | 22766 ft | 477 kts | 72° |
| 2026-05-06 03:46 | 49.60538 | 6.15126 | 22763 ft | 478 kts | 72° |
| 2026-05-06 03:46 | 49.61709 | 6.19911 | 22763 ft | 478 kts | 72° |
| 2026-05-06 03:47 | 49.62880 | 6.24706 | 22761 ft | 478 kts | 71° |
| 2026-05-06 03:47 | 49.64229 | 6.29396 | 22758 ft | 480 kts | 64° |
| 2026-05-06 03:47 | 49.65916 | 6.33850 | 22762 ft | 481 kts | 61° |
| 2026-05-06 03:47 | 49.67630 | 6.38285 | 22763 ft | 481 kts | 61° |
| 2026-05-06 03:48 | 49.69340 | 6.42729 | 22764 ft | 481 kts | 61° |
| 2026-05-06 03:48 | 49.71035 | 6.47117 | 22761 ft | 482 kts | 59° |
| 2026-05-06 03:48 | 49.73013 | 6.51296 | 22763 ft | 484 kts | 51° |
| 2026-05-06 03:48 | 49.75353 | 6.54990 | 22759 ft | 485 kts | 42° |
| 2026-05-06 03:49 | 49.77971 | 6.58290 | 22766 ft | 485 kts | 39° |
| 2026-05-06 03:49 | 49.80596 | 6.61544 | 22757 ft | 485 kts | 39° |
| 2026-05-06 03:49 | 49.83303 | 6.64660 | 22743 ft | 485 kts | 31° |
| 2026-05-06 03:49 | 49.86369 | 6.66809 | 22748 ft | 483 kts | 16° |
| 2026-05-06 03:50 | 49.89609 | 6.68187 | 22751 ft | 483 kts | 14° |
| 2026-05-06 03:50 | 49.92860 | 6.69513 | 22752 ft | 483 kts | 13° |
| 2026-05-06 03:50 | 49.96109 | 6.70817 | 22748 ft | 483 kts | 13° |
| 2026-05-06 03:50 | 49.99366 | 6.72120 | 22747 ft | 483 kts | 13° |
| 2026-05-06 03:51 | 50.02620 | 6.73431 | 22746 ft | 483 kts | 13° |
| 2026-05-06 03:51 | 50.05873 | 6.74751 | 22762 ft | 483 kts | 14° |
| 2026-05-06 03:51 | 50.09121 | 6.76078 | 22763 ft | 483 kts | 14° |
| 2026-05-06 03:51 | 50.12364 | 6.77413 | 22762 ft | 483 kts | 14° |
| 2026-05-06 03:52 | 50.15607 | 6.78769 | 22765 ft | 483 kts | 16° |
| 2026-05-06 03:52 | 50.18709 | 6.80759 | 22764 ft | 483 kts | 28° |
| 2026-05-06 03:52 | 50.21661 | 6.83334 | 22547 ft | 488 kts | 30° |
| 2026-05-06 03:52 | 50.24501 | 6.86239 | 22292 ft | 487 kts | 40° |
| 2026-05-06 03:53 | 50.26719 | 6.90171 | 22037 ft | 482 kts | 60° |
| 2026-05-06 03:53 | 50.27949 | 6.94977 | 21786 ft | 475 kts | 81° |
| 2026-05-06 03:53 | 50.28066 | 7.00070 | 21538 ft | 467 kts | 100° |
| 2026-05-06 03:53 | 50.27411 | 7.05008 | 21297 ft | 463 kts | 108° |
| 2026-05-06 03:54 | 50.26398 | 7.09775 | 21043 ft | 460 kts | 114° |
| 2026-05-06 03:54 | 50.25126 | 7.14342 | 20787 ft | 458 kts | 117° |
| 2026-05-06 03:54 | 50.23818 | 7.18882 | 20543 ft | 457 kts | 117° |
| 2026-05-06 03:54 | 50.22499 | 7.23399 | 20292 ft | 456 kts | 117° |
| 2026-05-06 03:55 | 50.21168 | 7.27886 | 20044 ft | 456 kts | 118° |
| 2026-05-06 03:55 | 50.19824 | 7.32359 | 19774 ft | 455 kts | 118° |
| 2026-05-06 03:55 | 50.18547 | 7.36865 | 18758 ft | 457 kts | 115° |
| 2026-05-06 03:55 | 50.17376 | 7.41510 | 17728 ft | 458 kts | 113° |
| 2026-05-06 03:56 | 50.16309 | 7.46145 | 16954 ft | 453 kts | 112° |
| 2026-05-06 03:56 | 50.15283 | 7.50759 | 16170 ft | 448 kts | 111° |
| 2026-05-06 03:56 | 50.14261 | 7.55326 | 15415 ft | 443 kts | 112° |
| 2026-05-06 03:56 | 50.13226 | 7.59813 | 14655 ft | 439 kts | 112° |
| 2026-05-06 03:57 | 50.12171 | 7.64254 | 13914 ft | 434 kts | 113° |
| 2026-05-06 03:57 | 50.11005 | 7.68517 | 12921 ft | 419 kts | 121° |
| 2026-05-06 03:57 | 50.09445 | 7.72272 | 11943 ft | 407 kts | 129° |
| 2026-05-06 03:57 | 50.07798 | 7.75864 | 11682 ft | 409 kts | 128° |
| 2026-05-06 03:58 | 50.06173 | 7.79474 | 11429 ft | 407 kts | 127° |
| 2026-05-06 03:58 | 50.04566 | 7.83085 | 11168 ft | 405 kts | 127° |
| 2026-05-06 03:58 | 50.02972 | 7.86697 | 10922 ft | 404 kts | 126° |
| 2026-05-06 03:58 | 50.01671 | 7.90578 | 10773 ft | 407 kts | 113° |
| 2026-05-06 03:59 | 50.00966 | 7.94830 | 10797 ft | 402 kts | 99° |
| 2026-05-06 03:59 | 50.00876 | 7.99040 | 10798 ft | 382 kts | 86° |
| 2026-05-06 03:59 | 50.01336 | 8.02986 | 10808 ft | 363 kts | 74° |
| 2026-05-06 03:59 | 50.02175 | 8.06575 | 10811 ft | 345 kts | 70° |
| 2026-05-06 04:00 | 50.02734 | 8.08844 | 10811 ft | 334 kts | 70° |
| 2026-05-06 04:00 | 50.03541 | 8.12139 | 10811 ft | 320 kts | 70° |
| 2026-05-06 04:00 | 50.04323 | 8.15362 | 10821 ft | 317 kts | 70° |
| 2026-05-06 04:00 | 50.05098 | 8.18560 | 10823 ft | 316 kts | 70° |
| 2026-05-06 04:01 | 50.05871 | 8.21759 | 10822 ft | 316 kts | 70° |
| 2026-05-06 04:01 | 50.06646 | 8.24965 | 10821 ft | 316 kts | 70° |
| 2026-05-06 04:01 | 50.07420 | 8.28156 | 10822 ft | 315 kts | 70° |
| 2026-05-06 04:01 | 50.08195 | 8.31356 | 10822 ft | 315 kts | 70° |
| 2026-05-06 04:02 | 50.08966 | 8.34551 | 10821 ft | 315 kts | 70° |
| 2026-05-06 04:02 | 50.09733 | 8.37749 | 10815 ft | 315 kts | 70° |
| 2026-05-06 04:02 | 50.10501 | 8.40944 | 10812 ft | 315 kts | 70° |
| 2026-05-06 04:02 | 50.11265 | 8.44125 | 10806 ft | 315 kts | 70° |
| 2026-05-06 04:03 | 50.12031 | 8.47324 | 10807 ft | 314 kts | 70° |
| 2026-05-06 04:03 | 50.12793 | 8.50504 | 10793 ft | 313 kts | 70° |
| 2026-05-06 04:03 | 50.13557 | 8.53689 | 10792 ft | 314 kts | 70° |
| 2026-05-06 04:03 | 50.14319 | 8.56880 | 10794 ft | 314 kts | 70° |
| 2026-05-06 04:04 | 50.15076 | 8.60070 | 10794 ft | 313 kts | 71° |
| 2026-05-06 04:04 | 50.15830 | 8.63258 | 10785 ft | 313 kts | 71° |
| 2026-05-06 04:04 | 50.16581 | 8.66428 | 10786 ft | 312 kts | 70° |
| 2026-05-06 04:04 | 50.17336 | 8.69606 | 10786 ft | 313 kts | 71° |
| 2026-05-06 04:05 | 50.18093 | 8.72794 | 10790 ft | 313 kts | 71° |
| 2026-05-06 04:05 | 50.18846 | 8.75968 | 10786 ft | 312 kts | 70° |
| 2026-05-06 04:05 | 50.19598 | 8.79146 | 10779 ft | 312 kts | 71° |
| 2026-05-06 04:05 | 50.20350 | 8.82327 | 10397 ft | 313 kts | 71° |
| 2026-05-06 04:06 | 50.21102 | 8.85515 | 10003 ft | 312 kts | 71° |
| 2026-05-06 04:06 | 50.21848 | 8.88684 | 9597 ft | 311 kts | 71° |
| 2026-05-06 04:06 | 50.22593 | 8.91848 | 9208 ft | 310 kts | 70° |
| 2026-05-06 04:06 | 50.23332 | 8.94996 | 8838 ft | 307 kts | 71° |
| 2026-05-06 04:07 | 50.24063 | 8.98121 | 8449 ft | 305 kts | 71° |
| 2026-05-06 04:07 | 50.24779 | 9.01202 | 7821 ft | 301 kts | 71° |
| 2026-05-06 04:07 | 50.25479 | 9.04222 | 7340 ft | 298 kts | 71° |
| 2026-05-06 04:07 | 50.26192 | 9.07290 | 6962 ft | 291 kts | 70° |
| 2026-05-06 04:08 | 50.26876 | 9.10230 | 6890 ft | 292 kts | 71° |
| 2026-05-06 04:08 | 50.27574 | 9.13244 | 6826 ft | 291 kts | 71° |
| 2026-05-06 04:08 | 50.28255 | 9.16179 | 6733 ft | 290 kts | 71° |
| 2026-05-06 04:08 | 50.28952 | 9.19182 | 6652 ft | 291 kts | 70° |
| 2026-05-06 04:09 | 50.29631 | 9.22114 | 6546 ft | 290 kts | 71° |
| 2026-05-06 04:09 | 50.30314 | 9.25078 | 6443 ft | 290 kts | 70° |
| 2026-05-06 04:09 | 50.30997 | 9.28035 | 6350 ft | 289 kts | 70° |
| 2026-05-06 04:09 | 50.31679 | 9.30995 | 6256 ft | 289 kts | 71° |
| 2026-05-06 04:10 | 50.32362 | 9.33960 | 6156 ft | 289 kts | 70° |
| 2026-05-06 04:10 | 50.33041 | 9.36909 | 6062 ft | 289 kts | 70° |
| 2026-05-06 04:10 | 50.33677 | 9.39895 | 5991 ft | 288 kts | 79° |
| 2026-05-06 04:10 | 50.33693 | 9.42982 | 5924 ft | 284 kts | 104° |
| 2026-05-06 04:11 | 50.32914 | 9.45787 | 5870 ft | 280 kts | 129° |
| 2026-05-06 04:11 | 50.31516 | 9.47831 | 5804 ft | 274 kts | 152° |
| 2026-05-06 04:11 | 50.29760 | 9.48849 | 5739 ft | 269 kts | 174° |
| 2026-05-06 04:11 | 50.27918 | 9.48759 | 5672 ft | 263 kts | 196° |
| 2026-05-06 04:12 | 50.26309 | 9.47676 | 5623 ft | 247 kts | 217° |
| 2026-05-06 04:12 | 50.25084 | 9.45801 | 5566 ft | 248 kts | 236° |
| 2026-05-06 04:12 | 50.24351 | 9.43382 | 5512 ft | 248 kts | 251° |
| 2026-05-06 04:12 | 50.23799 | 9.40828 | 5455 ft | 248 kts | 251° |
| 2026-05-06 04:13 | 50.23224 | 9.38287 | 5393 ft | 248 kts | 250° |
| 2026-05-06 04:13 | 50.22637 | 9.35742 | 5337 ft | 249 kts | 249° |
| 2026-05-06 04:13 | 50.22045 | 9.33218 | 5279 ft | 248 kts | 250° |
| 2026-05-06 04:13 | 50.21452 | 9.30689 | 5217 ft | 249 kts | 250° |
| 2026-05-06 04:14 | 50.20861 | 9.28162 | 5154 ft | 248 kts | 249° |
| 2026-05-06 04:14 | 50.20271 | 9.25637 | 5094 ft | 248 kts | 249° |
| 2026-05-06 04:14 | 50.19681 | 9.23107 | 5038 ft | 248 kts | 249° |
| 2026-05-06 04:14 | 50.19091 | 9.20576 | 4983 ft | 248 kts | 249° |
| 2026-05-06 04:15 | 50.18504 | 9.18049 | 4930 ft | 248 kts | 249° |
| 2026-05-06 04:15 | 50.17917 | 9.15526 | 4872 ft | 247 kts | 249° |
| 2026-05-06 04:15 | 50.17329 | 9.13003 | 4824 ft | 247 kts | 249° |
| 2026-05-06 04:15 | 50.16741 | 9.10485 | 4764 ft | 247 kts | 249° |
| 2026-05-06 04:16 | 50.16152 | 9.07975 | 4710 ft | 248 kts | 249° |
| 2026-05-06 04:16 | 50.15561 | 9.05456 | 4636 ft | 248 kts | 249° |
| 2026-05-06 04:16 | 50.14970 | 9.02944 | 4557 ft | 246 kts | 249° |
| 2026-05-06 04:16 | 50.14378 | 9.00433 | 4474 ft | 245 kts | 249° |
| 2026-05-06 04:17 | 50.13811 | 8.98005 | 4388 ft | 231 kts | 249° |
| 2026-05-06 04:17 | 50.13270 | 8.95707 | 4319 ft | 221 kts | 249° |
| 2026-05-06 04:17 | 50.12747 | 8.93527 | 4249 ft | 211 kts | 248° |
| 2026-05-06 04:17 | 50.12254 | 8.91455 | 4176 ft | 199 kts | 249° |
| 2026-05-06 04:18 | 50.11787 | 8.89467 | 4087 ft | 190 kts | 249° |
| 2026-05-06 04:18 | 50.11351 | 8.87608 | 4044 ft | 175 kts | 249° |
| 2026-05-06 04:18 | 50.10953 | 8.85912 | 3934 ft | 157 kts | 249° |
| 2026-05-06 04:18 | 50.10592 | 8.84380 | 3764 ft | 145 kts | 248° |
| 2026-05-06 04:19 | 50.10260 | 8.82969 | 3581 ft | 137 kts | 248° |
| 2026-05-06 04:19 | 50.09935 | 8.81592 | 3410 ft | 134 kts | 248° |
| 2026-05-06 04:19 | 50.09615 | 8.80233 | 3237 ft | 133 kts | 248° |
| 2026-05-06 04:19 | 50.09296 | 8.78885 | 3060 ft | 132 kts | 248° |
| 2026-05-06 04:20 | 50.08979 | 8.77541 | 2896 ft | 132 kts | 247° |
| 2026-05-06 04:20 | 50.08663 | 8.76203 | 2727 ft | 132 kts | 248° |
| 2026-05-06 04:20 | 50.08346 | 8.74865 | 2548 ft | 132 kts | 248° |
| 2026-05-06 04:20 | 50.08029 | 8.73523 | 2372 ft | 132 kts | 247° |
| 2026-05-06 04:21 | 50.07712 | 8.72180 | 2196 ft | 133 kts | 247° |
| 2026-05-06 04:21 | 50.07392 | 8.70828 | 2012 ft | 133 kts | 247° |
| 2026-05-06 04:21 | 50.07071 | 8.69475 | 1835 ft | 134 kts | 248° |
| 2026-05-06 04:21 | 50.06748 | 8.68116 | 1664 ft | 135 kts | 247° |
| 2026-05-06 04:22 | 50.06423 | 8.66745 | 1474 ft | 135 kts | 247° |
| 2026-05-06 04:22 | 50.06096 | 8.65376 | 1289 ft | 135 kts | 248° |
| 2026-05-06 04:22 | 50.05775 | 8.64010 | 1102 ft | 134 kts | 248° |
| 2026-05-06 04:23 | 50.05131 | 8.61285 | 769 ft | 134 kts | 248° |
| 2026-05-06 04:23 | 50.04809 | 8.59934 | 578 ft | 134 kts | 247° |
| 2026-05-06 04:23 | 50.04490 | 8.58603 | 406 ft | 134 kts | 248° |
| 2026-05-06 04:23 | 50.04191 | 8.57379 | 365 ft | 99 kts | 250° |
| 2026-05-06 04:24 | 50.04013 | 8.56627 | 358 ft | 41 kts | 250° |
| 2026-05-06 04:24 | 50.03999 | 8.56287 | 360 ft | 20 kts | 279° |
| 2026-05-06 04:24 | 50.04020 | 8.56108 | 361 ft | 13 kts | 288° |
| 2026-05-06 04:24 | 50.04059 | 8.56018 | 363 ft | 8 kts | 313° |
| 2026-05-06 04:25 | 50.04096 | 8.55970 | 364 ft | 6 kts | 331° |
| 2026-05-06 04:25 | 50.04136 | 8.55945 | 360 ft | 8 kts | 339° |
| 2026-05-06 04:25 | 50.04211 | 8.55921 | 360 ft | 12 kts | 12° |
| 2026-05-06 04:25 | 50.04258 | 8.56010 | 364 ft | 10 kts | 69° |
| 2026-05-06 04:26 | 50.04281 | 8.56109 | 360 ft | 9 kts | 70° |
| 2026-05-06 04:26 | 50.04302 | 8.56197 | 361 ft | 8 kts | 70° |
| 2026-05-06 04:26 | 50.04321 | 8.56275 | 364 ft | 9 kts | 70° |
| 2026-05-06 04:26 | 50.04350 | 8.56399 | 361 ft | 14 kts | 70° |
| 2026-05-06 04:27 | 50.04382 | 8.56536 | 361 ft | 13 kts | 70° |
| 2026-05-06 04:27 | 50.04412 | 8.56663 | 367 ft | 12 kts | 70° |
| 2026-05-06 04:27 | 50.04437 | 8.56767 | 363 ft | 9 kts | 70° |
| 2026-05-06 04:27 | 50.04464 | 8.56843 | 363 ft | 8 kts | 46° |
| 2026-05-06 04:28 | 50.04532 | 8.56885 | 361 ft | 12 kts | 12° |
| 2026-05-06 04:28 | 50.04611 | 8.56910 | 363 ft | 11 kts | 12° |
| 2026-05-06 04:28 | 50.04679 | 8.56950 | 363 ft | 10 kts | 24° |
| 2026-05-06 04:28 | 50.04765 | 8.57012 | 363 ft | 14 kts | 25° |
| 2026-05-06 04:29 | 50.04839 | 8.57067 | 363 ft | 10 kts | 25° |
| 2026-05-06 04:29 | 50.04883 | 8.57073 | 361 ft | 5 kts | 336° |
| 2026-05-06 04:29 | 50.04913 | 8.57065 | 361 ft | 4 kts | 24° |
| 2026-05-06 04:29 | 50.04920 | 8.57082 | 361 ft | 1 kts | 97° |
| 2026-05-06 04:30 | 50.04918 | 8.57087 | 361 ft | 0 kts | 107° |